| time (UTC) | temp C | wind direction | speed KPH | gust KPH | rain 1hr cm | rain 24hr cm | rain mn cm | humidity % | barometer mb |
| 20260906113403 | 21 | 47 | 3.2 | 4.8 | 0.00 | 0.00 | 0.00 | 96 | 1047.0 |
| 20260906112859 | 21 | 348 | 3.2 | 4.8 | 0.00 | 0.00 | 0.00 | 96 | 1047.0 |
| 20260906112355 | 21 | 46 | 8.0 | 11.3 | 0.00 | 0.00 | 0.00 | 96 | 1047.2 |
| 20260906111855 | 21 | 8 | 8.0 | 9.7 | 0.00 | 0.00 | 0.00 | 96 | 1046.8 |
| 20260906111355 | 21 | 13 | 3.2 | 9.7 | 0.00 | 0.00 | 0.00 | 96 | 1046.9 |
| 20260906110850 | 21 | 44 | 3.2 | 4.8 | 0.00 | 0.00 | 0.00 | 96 | 1046.8 |
| 20260906110346 | 21 | 26 | 4.8 | 4.8 | 0.00 | 0.00 | 0.00 | 96 | 1046.9 |
| 20260906105844 | 21 | 25 | 8.0 | 9.7 | 0.00 | 0.00 | 0.00 | 96 | 1046.9 |
| 20260906105340 | 21 | 27 | 6.4 | 9.7 | 0.00 | 0.00 | 0.00 | 96 | 1047.0 |
| 20260906104836 | 21 | 27 | 6.4 | 9.7 | 0.00 | 0.00 | 0.00 | 96 | 1046.9 |
| 20260906104334 | 21 | 50 | 3.2 | 3.2 | 0.00 | 0.00 | 0.00 | 96 | 1046.7 |
| 20260906103833 | 21 | 39 | 3.2 | 3.2 | 0.00 | 0.00 | 0.00 | 96 | 1046.8 |
| 20260906103332 | -17 | 0.0 | 0.0 | 0.00 | 0.00 | 0.00 | 1046.7 | ||
| 20260906102828 | -17 | 0.0 | 0.0 | 0.00 | 0.00 | 0.00 | 1046.6 | ||
| 20260906102326 | -17 | 0.0 | 0.0 | 0.00 | 0.00 | 0.00 | 1046.7 | ||
| 20260906101822 | -17 | 0.0 | 0.0 | 0.00 | 0.00 | 0.00 | 1046.3 | ||
| 20260906101317 | -17 | 0.0 | 0.0 | 0.00 | 0.00 | 0.00 | 1046.4 | ||
| 20260906100813 | 21 | 15 | 1.6 | 1.6 | 0.00 | 0.00 | 0.00 | 95 | 1046.4 |
| 20260906100311 | 21 | 15 | 1.6 | 1.6 | 0.00 | 0.00 | 0.00 | 95 | 1046.4 |
| 20260906095807 | -17 | 0.0 | 0.0 | 0.00 | 0.00 | 0.00 | 1046.1 | ||
| 20260906095305 | 21 | 39 | 3.2 | 3.2 | 0.00 | 0.00 | 0.00 | 95 | 1046.3 |
| 20260906094801 | 21 | 39 | 3.2 | 3.2 | 0.00 | 0.00 | 0.00 | 95 | 1046.1 |
| 20260906094256 | 21 | 45 | 3.2 | 3.2 | 0.00 | 0.00 | 0.00 | 95 | 1046.1 |
| 20260906093753 | 21 | 50 | 3.2 | 3.2 | 0.00 | 0.00 | 0.00 | 95 | 1045.9 |
| 20260906093248 | 21 | 40 | 3.2 | 3.2 | 0.00 | 0.00 | 0.00 | 95 | 1046.3 |
| 20260906092743 | -17 | 0.0 | 0.0 | 0.00 | 0.00 | 0.00 | 1046.1 | ||
| 20260906092238 | 21 | 35 | 3.2 | 4.8 | 0.00 | 0.00 | 0.00 | 95 | 1046.3 |
| 20260906091734 | 21 | 35 | 3.2 | 4.8 | 0.00 | 0.00 | 0.00 | 95 | 1046.1 |
| 20260906091230 | 21 | 42 | 4.8 | 4.8 | 0.00 | 0.00 | 0.00 | 95 | 1046.1 |
| 20260906090726 | 21 | 45 | 4.8 | 6.4 | 0.00 | 0.00 | 0.00 | 95 | 1046.0 |
| 20260906090225 | 21 | 41 | 3.2 | 4.8 | 0.00 | 0.00 | 0.00 | 95 | 1046.1 |
| 20260906085724 | 21 | 25 | 0.0 | 1.6 | 0.00 | 0.00 | 0.00 | 95 | 1046.1 |
| 20260906085223 | 21 | 47 | 3.2 | 4.8 | 0.00 | 0.00 | 0.00 | 95 | 1046.1 |
| 20260906084719 | 21 | 18 | 4.8 | 4.8 | 0.00 | 0.00 | 0.00 | 95 | 1045.8 |
| 20260906084218 | 21 | 39 | 3.2 | 3.2 | 0.00 | 0.00 | 0.00 | 95 | 1046.0 |
| 20260906083714 | 21 | 44 | 3.2 | 3.2 | 0.00 | 0.00 | 0.00 | 94 | 1046.1 |
| 20260906083209 | 21 | 30 | 1.6 | 3.2 | 0.00 | 0.00 | 0.00 | 94 | 1046.0 |
| 20260906082704 | 21 | 14 | 1.6 | 1.6 | 0.00 | 0.00 | 0.00 | 95 | 1045.8 |
| 20260906082159 | 21 | 34 | 3.2 | 3.2 | 0.00 | 0.00 | 0.00 | 95 | 1046.3 |
| 20260906081655 | -17 | 0.0 | 0.0 | 0.00 | 0.00 | 0.00 | 1045.9 | ||
| 20260906081150 | -17 | 0.0 | 0.0 | 0.00 | 0.00 | 0.00 | 1046.0 | ||
| 20260906080646 | 21 | 17 | 0.0 | 0.0 | 0.00 | 0.00 | 0.00 | 95 | 1046.0 |
| 20260906080142 | 21 | 17 | 0.0 | 0.0 | 0.00 | 0.00 | 0.00 | 95 | 1046.0 |
| 20260906075642 | -17 | 0.0 | 0.0 | 0.00 | 0.00 | 0.00 | 1045.9 | ||
| 20260906075136 | 21 | 356 | 0.0 | 0.0 | 0.00 | 0.00 | 0.00 | 94 | 1046.0 |
| 20260906074632 | 21 | 356 | 0.0 | 0.0 | 0.00 | 0.00 | 0.00 | 94 | 1045.9 |
| 20260906074130 | 21 | 356 | 0.0 | 0.0 | 0.00 | 0.00 | 0.00 | 94 | 1045.8 |
| 20260906073626 | -17 | 0.0 | 0.0 | 0.00 | 0.00 | 0.00 | 1046.1 | ||
| 20260906073121 | -17 | 0.0 | 0.0 | 0.00 | 0.00 | 0.00 | 1045.9 | ||
| 20260906072616 | -17 | 0.0 | 0.0 | 0.00 | 0.00 | 0.00 | 1045.9 | ||
| 20260906072112 | -17 | 0.0 | 0.0 | 0.00 | 0.00 | 0.00 | 1046.0 | ||
| 20260906071609 | -17 | 0.0 | 0.0 | 0.00 | 0.00 | 0.00 | 1046.1 | ||
| 20260906071109 | -17 | 0.0 | 0.0 | 0.00 | 0.00 | 0.00 | 1045.9 | ||
| 20260906070606 | -17 | 0.0 | 0.0 | 0.00 | 0.00 | 0.00 | 1045.9 | ||
| 20260906070101 | -17 | 0.0 | 0.0 | 0.00 | 0.00 | 0.00 | 1046.4 | ||
| 20260906065600 | -17 | 0.0 | 0.0 | 0.00 | 0.00 | 0.00 | 1046.4 | ||
| 20260906065056 | -17 | 0.0 | 0.0 | 0.00 | 0.00 | 0.00 | 1046.4 | ||
| 20260906064551 | -17 | 0.0 | 0.0 | 0.00 | 0.00 | 0.00 | 1046.5 | ||
| 20260906064046 | -17 | 0.0 | 0.0 | 0.00 | 0.00 | 0.00 | 1046.4 | ||
| 20260906063541 | -17 | 0.0 | 0.0 | 0.00 | 0.00 | 0.00 | 1046.4 | ||
| 20260906063038 | -17 | 0.0 | 0.0 | 0.00 | 0.00 | 0.00 | 1046.4 | ||
| 20260906062532 | -17 | 0.0 | 0.0 | 0.00 | 0.00 | 0.00 | 1046.3 | ||
| 20260906062027 | 22 | 255 | 0.0 | 0.0 | 0.00 | 0.00 | 0.00 | 88 | 1046.3 |
| 20260906061523 | 22 | 255 | 0.0 | 0.0 | 0.00 | 0.00 | 0.00 | 88 | 1046.4 |
| 20260906061022 | 22 | 255 | 0.0 | 0.0 | 0.00 | 0.00 | 0.00 | 88 | 1046.6 |
| 20260906060519 | -17 | 0.0 | 0.0 | 0.00 | 0.00 | 0.00 | 1046.5 | ||
| 20260906060016 | -17 | 0.0 | 0.0 | 0.00 | 0.00 | 0.00 | 1046.4 | ||
| 20260906055511 | -17 | 0.0 | 0.0 | 0.00 | 0.00 | 0.00 | 1046.5 | ||
| 20260906055007 | -17 | 0.0 | 0.0 | 0.00 | 0.00 | 0.00 | 1046.8 | ||
| 20260906054507 | 22 | 350 | 0.0 | 1.6 | 0.00 | 0.00 | 0.00 | 87 | 1046.8 |
| 20260906054002 | 22 | 350 | 0.0 | 1.6 | 0.00 | 0.00 | 0.00 | 87 | 1046.8 |
| 20260906053458 | 22 | 350 | 0.0 | 1.6 | 0.00 | 0.00 | 0.00 | 87 | 1046.7 |
| 20260906052954 | 23 | 16 | 1.6 | 1.6 | 0.00 | 0.00 | 0.00 | 86 | 1046.6 |
| 20260906052450 | 23 | 16 | 1.6 | 1.6 | 0.00 | 0.00 | 0.00 | 86 | 1046.5 |
| 20260906051946 | -17 | 0.0 | 0.0 | 0.00 | 0.00 | 0.00 | 1046.6 | ||
| 20260906051441 | -17 | 0.0 | 0.0 | 0.00 | 0.00 | 0.00 | 1046.5 | ||
| 20260906050937 | -17 | 0.0 | 0.0 | 0.00 | 0.00 | 0.00 | 1046.6 | ||
| 20260906050437 | -17 | 0.0 | 0.0 | 0.00 | 0.00 | 0.00 | 1046.8 | ||
| 20260906045936 | -17 | 0.0 | 0.0 | 0.00 | 0.00 | 0.00 | 1046.6 | ||
| 20260906045435 | -17 | 0.0 | 0.0 | 0.00 | 0.00 | 0.00 | 1046.7 | ||
| 20260906044932 | -17 | 0.0 | 0.0 | 0.00 | 0.00 | 0.00 | 1046.5 | ||
| 20260906044432 | -17 | 0.0 | 0.0 | 0.00 | 0.00 | 0.00 | 1046.5 | ||
| 20260906043927 | -17 | 0.0 | 0.0 | 0.00 | 0.00 | 0.00 | 1046.5 | ||
| 20260906043423 | -17 | 0.0 | 0.0 | 0.00 | 0.00 | 0.00 | 1046.6 | ||
| 20260906042918 | -17 | 0.0 | 0.0 | 0.00 | 0.00 | 0.00 | 1046.4 | ||
| 20260906042417 | -17 | 0.0 | 0.0 | 0.00 | 0.00 | 0.00 | 1046.7 | ||
| 20260906041913 | -17 | 0.0 | 0.0 | 0.00 | 0.00 | 0.00 | 1046.7 | ||
| 20260906041409 | -17 | 0.0 | 0.0 | 0.00 | 0.00 | 0.00 | 1046.4 | ||
| 20260906040908 | -17 | 0.0 | 0.0 | 0.00 | 0.00 | 0.00 | 1046.7 | ||
| 20260906040403 | -17 | 0.0 | 0.0 | 0.00 | 0.00 | 0.00 | 1046.5 | ||
| 20260906035859 | 23 | 26 | 0.0 | 0.0 | 0.00 | 0.91 | 0.91 | 83 | 1046.4 |
| 20260906035355 | 23 | 26 | 0.0 | 0.0 | 0.00 | 0.91 | 0.91 | 83 | 1046.4 |
| 20260906034850 | 23 | 26 | 0.0 | 0.0 | 0.00 | 0.91 | 0.91 | 83 | 1046.4 |
| 20260906034350 | -17 | 0.0 | 0.0 | 0.00 | 0.91 | 0.91 | 1045.9 | ||
| 20260906033846 | -17 | 0.0 | 0.0 | 0.00 | 0.91 | 0.91 | 1046.1 | ||
| 20260906033345 | -17 | 0.0 | 0.0 | 0.00 | 0.91 | 0.91 | 1046.0 | ||
| 20260906032841 | -17 | 0.0 | 0.0 | 0.00 | 0.91 | 0.91 | 1046.0 | ||
| 20260906032337 | -17 | 0.0 | 0.0 | 0.00 | 0.91 | 0.91 | 1045.9 | ||
| 20260906031832 | -17 | 0.0 | 0.0 | 0.00 | 0.91 | 0.91 | 1046.0 | ||
| 20260906031327 | -17 | 0.0 | 0.0 | 0.00 | 0.91 | 0.91 | 1046.1 | ||
| 20260906030827 | 24 | 2 | 0.0 | 0.0 | 0.00 | 0.91 | 0.91 | 79 | 1046.1 |
| 20260906030323 | 24 | 2 | 0.0 | 0.0 | 0.00 | 0.91 | 0.91 | 79 | 1046.3 |
| 20260906025822 | 24 | 33 | 1.6 | 1.6 | 0.00 | 0.91 | 0.91 | 79 | 1045.9 |
| 20260906025316 | 24 | 4 | 1.6 | 1.6 | 0.00 | 0.91 | 0.91 | 79 | 1046.1 |
| 20260906024816 | 25 | 21 | 0.0 | 0.0 | 0.00 | 0.91 | 0.91 | 79 | 1046.4 |
| 20260906024315 | 25 | 21 | 0.0 | 0.0 | 0.00 | 0.91 | 0.91 | 79 | 1046.3 |
| 20260906023811 | 24 | 2 | 1.6 | 3.2 | 0.00 | 0.91 | 0.91 | 79 | 1045.9 |
| 20260906023306 | 24 | 5 | 6.4 | 9.7 | 0.00 | 0.91 | 0.91 | 81 | 1046.4 |
| 20260906022801 | -17 | 0.0 | 0.0 | 0.00 | 0.91 | 0.91 | 1045.8 | ||
| 20260906022257 | -17 | 0.0 | 0.0 | 0.00 | 0.91 | 0.91 | 1045.7 | ||
| 20260906021753 | 25 | 193 | 0.0 | 0.0 | 0.00 | 0.91 | 0.91 | 76 | 1045.7 |
| 20260906021251 | 25 | 193 | 0.0 | 0.0 | 0.00 | 0.91 | 0.91 | 76 | 1045.5 |
| 20260906020746 | 25 | 193 | 0.0 | 0.0 | 0.00 | 0.91 | 0.91 | 76 | 1045.4 |
| 20260906020246 | -17 | 0.0 | 0.0 | 0.00 | 0.00 | 0.00 | 1045.6 | ||
| 20260906015741 | -17 | 0.0 | 0.0 | 0.00 | 0.00 | 0.00 | 1045.6 | ||
| 20260906015240 | -17 | 0.0 | 0.0 | 0.00 | 0.00 | 0.00 | 1045.6 | ||
| 20260906014740 | -17 | 0.0 | 0.0 | 0.00 | 0.00 | 0.00 | 1045.6 | ||
| 20260906014235 | -17 | 0.0 | 0.0 | 0.00 | 0.00 | 0.00 | 1045.3 | ||
| 20260906013731 | -17 | 0.0 | 0.0 | 0.00 | 0.00 | 0.00 | 1045.6 | ||
| 20260906013231 | -17 | 0.0 | 0.0 | 0.00 | 0.00 | 0.00 | 1045.8 | ||
| 20260906012726 | -17 | 0.0 | 0.0 | 0.00 | 0.00 | 0.00 | 1045.7 | ||
| 20260906012221 | -17 | 0.0 | 0.0 | 0.00 | 0.00 | 0.00 | 1045.4 | ||
| 20260906011717 | -17 | 0.0 | 0.0 | 0.00 | 0.00 | 0.00 | 1045.3 | ||
| 20260906011211 | -17 | 0.0 | 0.0 | 0.00 | 0.00 | 0.00 | 1045.4 | ||
| 20260906010707 | -17 | 0.0 | 0.0 | 0.00 | 0.00 | 0.00 | 1045.3 | ||
| 20260906010203 | -17 | 0.0 | 0.0 | 0.00 | 0.00 | 0.00 | 1045.0 | ||
| 20260906005702 | -17 | 0.0 | 0.0 | 0.00 | 0.00 | 0.00 | 1045.2 | ||
| 20260906005202 | -17 | 0.0 | 0.0 | 0.00 | 0.00 | 0.00 | 1045.0 | ||
| 20260906004701 | -17 | 0.0 | 0.0 | 0.00 | 0.00 | 0.00 | 1045.0 | ||
| 20260906004156 | -17 | 0.0 | 0.0 | 0.00 | 0.00 | 0.00 | 1045.1 | ||
| 20260906003652 | -17 | 0.0 | 0.0 | 0.00 | 0.00 | 0.00 | 1044.9 | ||
| 20260906003147 | -17 | 0.0 | 0.0 | 0.00 | 0.00 | 0.00 | 1044.8 | ||
| 20260906002647 | -17 | 0.0 | 0.0 | 0.00 | 0.00 | 0.00 | 1044.7 | ||
| 20260906002142 | -17 | 0.0 | 0.0 | 0.00 | 0.00 | 0.00 | 1044.9 | ||
| 20260906001637 | -17 | 0.0 | 0.0 | 0.00 | 0.00 | 0.00 | 1044.7 | ||
| 20260906001137 | -17 | 0.0 | 0.0 | 0.00 | 0.00 | 0.00 | 1044.9 | ||
| 20260906000633 | -17 | 0.0 | 0.0 | 0.00 | 0.00 | 0.00 | 1044.9 | ||
| 20260906000128 | -17 | 0.0 | 0.0 | 0.00 | 0.00 | 0.00 | 1045.0 | ||
| 20260905235627 | -17 | 0.0 | 0.0 | 0.00 | 0.00 | 0.00 | 1045.0 | ||
| 20260905235123 | -17 | 0.0 | 0.0 | 0.00 | 0.00 | 0.00 | 1045.3 | ||
| 20260905234618 | -17 | 0.0 | 0.0 | 0.00 | 0.00 | 0.00 | 1045.4 | ||
| 20260905234114 | -17 | 0.0 | 0.0 | 0.00 | 0.91 | 0.91 | 1045.4 | ||
| 20260905233613 | -17 | 0.0 | 0.0 | 0.00 | 0.91 | 0.91 | 1045.5 | ||
| 20260905233108 | -17 | 0.0 | 0.0 | 0.00 | 0.91 | 0.91 | 1045.3 | ||
| 20260905232603 | -17 | 0.0 | 0.0 | 0.00 | 0.91 | 0.91 | 1045.4 | ||
| 20260905232059 | -17 | 0.0 | 0.0 | 0.00 | 0.91 | 0.91 | 1045.5 | ||
| 20260905231554 | -17 | 0.0 | 0.0 | 0.00 | 0.91 | 0.91 | 1045.5 | ||
| 20260905231050 | -17 | 0.0 | 0.0 | 0.00 | 0.91 | 0.91 | 1045.8 | ||
| 20260905230550 | -17 | 0.0 | 0.0 | 0.00 | 0.91 | 0.91 | 1045.6 | ||
| 20260905230048 | -17 | 0.0 | 0.0 | 0.00 | 0.91 | 0.91 | 1045.7 | ||
| 20260905225543 | -17 | 0.0 | 0.0 | 0.00 | 0.91 | 0.91 | 1045.4 | ||
| 20260905225038 | 32 | 3 | 0.0 | 0.0 | 0.00 | 0.91 | 0.91 | 55 | 1045.3 |
| 20260905224538 | 32 | 3 | 0.0 | 0.0 | 0.00 | 0.91 | 0.91 | 55 | 1045.3 |
| 20260905224037 | -17 | 0.0 | 0.0 | 0.00 | 0.91 | 0.91 | 1045.2 | ||
| 20260905223535 | 32 | 355 | 1.6 | 1.6 | 0.00 | 0.91 | 0.91 | 54 | 1045.5 |
| 20260905223031 | 32 | 355 | 1.6 | 1.6 | 0.00 | 0.91 | 0.91 | 54 | 1045.3 |
| 20260905222530 | 32 | 355 | 1.6 | 1.6 | 0.00 | 0.91 | 0.91 | 54 | 1045.5 |
| 20260905222026 | 33 | 354 | 1.6 | 3.2 | 0.00 | 0.91 | 0.91 | 51 | 1045.6 |
| 20260905221522 | 33 | 4 | 3.2 | 3.2 | 0.00 | 0.91 | 0.91 | 50 | 1045.4 |
| 20260905221018 | 33 | 0 | 1.6 | 1.6 | 0.00 | 0.91 | 0.91 | 50 | 1045.4 |
| 20260905220514 | 33 | 348 | 3.2 | 3.2 | 0.00 | 0.91 | 0.91 | 50 | 1045.4 |
| 20260905220010 | 33 | 350 | 3.2 | 3.2 | 0.00 | 0.91 | 0.91 | 51 | 1045.4 |
| 20260905215504 | 33 | 319 | 3.2 | 4.8 | 0.00 | 0.91 | 0.91 | 51 | 1045.5 |
| 20260905215000 | 33 | 344 | 4.8 | 6.4 | 0.00 | 0.91 | 0.91 | 50 | 1045.6 |
| 20260905214455 | 34 | 247 | 3.2 | 4.8 | 0.00 | 0.91 | 0.91 | 48 | 1045.1 |
| 20260905213955 | 34 | 22 | 3.2 | 3.2 | 0.00 | 0.91 | 0.91 | 49 | 1045.1 |
| 20260905213452 | 35 | 48 | 0.0 | 1.6 | 0.00 | 0.91 | 0.91 | 47 | 1045.3 |
| 20260905212946 | 35 | 252 | 1.6 | 1.6 | 0.00 | 0.91 | 0.91 | 48 | 1045.2 |
| 20260905212441 | 34 | 267 | 1.6 | 1.6 | 0.00 | 0.91 | 0.91 | 47 | 1045.0 |
| 20260905211940 | 34 | 267 | 1.6 | 1.6 | 0.00 | 0.91 | 0.91 | 47 | 1045.1 |
| 20260905211436 | 34 | 267 | 1.6 | 1.6 | 0.00 | 0.91 | 0.91 | 47 | 1045.2 |
| 20260905210932 | 34 | 324 | 4.8 | 6.4 | 0.00 | 0.91 | 0.91 | 46 | 1045.1 |
| 20260905210432 | 35 | 341 | 1.6 | 1.6 | 0.00 | 0.91 | 0.91 | 48 | 1045.0 |
| 20260905205932 | 35 | 348 | 3.2 | 3.2 | 0.00 | 0.91 | 0.91 | 47 | 1045.2 |
| 20260905205427 | -17 | 0.0 | 0.0 | 0.00 | 0.91 | 0.91 | 1045.2 | ||
| 20260905204926 | 34 | 351 | 4.8 | 4.8 | 0.00 | 0.91 | 0.91 | 46 | 1045.1 |
| 20260905204422 | 34 | 351 | 4.8 | 4.8 | 0.00 | 0.91 | 0.91 | 46 | 1045.2 |
| 20260905203921 | 34 | 351 | 4.8 | 4.8 | 0.00 | 0.91 | 0.91 | 46 | 1045.5 |
| 20260905203416 | 34 | 1 | 3.2 | 3.2 | 0.00 | 0.91 | 0.91 | 46 | 1045.3 |
| 20260905202912 | 34 | 1 | 3.2 | 3.2 | 0.00 | 0.91 | 0.91 | 46 | 1045.7 |
| 20260905202407 | -17 | 0.0 | 0.0 | 0.00 | 0.91 | 0.91 | 1045.6 | ||
| 20260905201902 | 35 | 263 | 8.0 | 9.7 | 0.00 | 0.91 | 0.91 | 45 | 1045.6 |
| 20260905201358 | 35 | 263 | 8.0 | 9.7 | 0.00 | 0.91 | 0.91 | 45 | 1045.8 |
| 20260905200857 | -17 | 0.0 | 0.0 | 0.00 | 0.00 | 0.00 | 1045.6 | ||
| 20260905200353 | -17 | 0.0 | 0.0 | 0.00 | 0.00 | 0.00 | 1045.8 | ||
| 20260905195851 | -17 | 0.0 | 0.0 | 0.00 | 0.00 | 0.00 | 1045.8 | ||
| 20260905195347 | -17 | 0.0 | 0.0 | 0.00 | 0.00 | 0.00 | 1046.0 | ||
| 20260905194842 | -17 | 0.0 | 0.0 | 0.00 | 0.00 | 0.00 | 1046.0 | ||
| 20260905194342 | -17 | 0.0 | 0.0 | 0.00 | 0.00 | 0.00 | 1046.1 | ||
| 20260905193841 | -17 | 0.0 | 0.0 | 0.00 | 0.00 | 0.00 | 1046.3 | ||
| 20260905193336 | -17 | 0.0 | 0.0 | 0.00 | 0.00 | 0.00 | 1046.3 | ||
| 20260905192832 | -17 | 0.0 | 0.0 | 0.00 | 0.00 | 0.00 | 1046.5 | ||
| 20260905192328 | -17 | 0.0 | 0.0 | 0.00 | 0.00 | 0.00 | 1046.6 | ||
| 20260905191827 | -17 | 0.0 | 0.0 | 0.00 | 0.00 | 0.00 | 1046.5 | ||
| 20260905191326 | -17 | 0.0 | 0.0 | 0.00 | 0.00 | 0.00 | 1046.7 | ||
| 20260905190825 | -17 | 0.0 | 0.0 | 0.00 | 0.00 | 0.00 | 1046.6 | ||
| 20260905190324 | -17 | 0.0 | 0.0 | 0.00 | 0.00 | 0.00 | 1046.7 | ||
| 20260905185823 | -17 | 0.0 | 0.0 | 0.00 | 0.00 | 0.00 | 1046.8 | ||
| 20260905185319 | -17 | 0.0 | 0.0 | 0.00 | 0.00 | 0.00 | 1046.7 | ||
| 20260905184818 | -17 | 0.0 | 0.0 | 0.00 | 0.00 | 0.00 | 1046.7 | ||
| 20260905184317 | -17 | 0.0 | 0.0 | 0.00 | 0.00 | 0.00 | 1046.7 | ||
| 20260905183815 | -17 | 0.0 | 0.0 | 0.00 | 0.00 | 0.00 | 1046.9 | ||
| 20260905183311 | -17 | 0.0 | 0.0 | 0.00 | 0.00 | 0.00 | 1047.1 | ||
| 20260905182806 | -17 | 0.0 | 0.0 | 0.00 | 0.00 | 0.00 | 1047.2 | ||
| 20260905182306 | -17 | 0.0 | 0.0 | 0.00 | 0.00 | 0.00 | 1047.2 | ||
| 20260905181800 | -17 | 0.0 | 0.0 | 0.00 | 0.00 | 0.00 | 1047.3 | ||
| 20260905181255 | -17 | 0.0 | 0.0 | 0.00 | 0.00 | 0.00 | 1047.2 | ||
| 20260905180754 | -17 | 0.0 | 0.0 | 0.00 | 0.00 | 0.00 | 1047.2 | ||
| 20260905180249 | -17 | 0.0 | 0.0 | 0.00 | 0.00 | 0.00 | 1047.6 | ||
| 20260905175744 | -17 | 0.0 | 0.0 | 0.00 | 0.00 | 0.00 | 1047.4 | ||
| 20260905175239 | -17 | 0.0 | 0.0 | 0.00 | 0.00 | 0.00 | 1047.4 | ||
| 20260905174734 | -17 | 0.0 | 0.0 | 0.00 | 0.00 | 0.00 | 1047.7 | ||
| 20260905174229 | -17 | 0.0 | 0.0 | 0.00 | 0.00 | 0.00 | 1047.8 | ||
| 20260905173726 | -17 | 0.0 | 0.0 | 0.00 | 0.00 | 0.00 | 1047.7 | ||
| 20260905173222 | -17 | 0.0 | 0.0 | 0.00 | 0.00 | 0.00 | 1047.7 | ||
| 20260905172721 | -17 | 0.0 | 0.0 | 0.00 | 0.00 | 0.00 | 1047.5 | ||
| 20260905172221 | -17 | 0.0 | 0.0 | 0.00 | 0.00 | 0.00 | 1047.7 | ||
| 20260905171716 | -17 | 0.0 | 0.0 | 0.00 | 0.00 | 0.00 | 1047.7 | ||
| 20260905171213 | -17 | 0.0 | 0.0 | 0.00 | 0.00 | 0.00 | 1047.9 | ||
| 20260905170710 | -17 | 0.0 | 0.0 | 0.00 | 0.91 | 0.91 | 1047.8 | ||
| 20260905170209 | -17 | 0.0 | 0.0 | 0.00 | 0.91 | 0.91 | 1048.0 | ||
| 20260905165709 | -17 | 0.0 | 0.0 | 0.00 | 0.91 | 0.91 | 1048.3 | ||
| 20260905165204 | -17 | 0.0 | 0.0 | 0.00 | 0.91 | 0.91 | 1048.0 | ||
| 20260905164659 | -17 | 0.0 | 0.0 | 0.00 | 0.91 | 0.91 | 1048.1 | ||
| 20260905164159 | -17 | 0.0 | 0.0 | 0.00 | 0.91 | 0.91 | 1048.0 | ||
| 20260905163655 | -17 | 0.0 | 0.0 | 0.00 | 0.91 | 0.91 | 1048.3 | ||
| 20260905163151 | -17 | 0.0 | 0.0 | 0.00 | 0.91 | 0.91 | 1047.8 | ||
| 20260905162647 | -17 | 0.0 | 0.0 | 0.00 | 0.91 | 0.91 | 1047.9 | ||
| 20260905162146 | -17 | 0.0 | 0.0 | 0.00 | 0.91 | 0.91 | 1047.9 | ||
| 20260905161641 | 29 | 170 | 9.7 | 12.9 | 0.00 | 0.91 | 0.91 | 57 | 1048.2 |
| 20260905161139 | 29 | 170 | 9.7 | 12.9 | 0.00 | 0.91 | 0.91 | 57 | 1048.0 |
| 20260905160639 | 29 | 152 | 3.2 | 4.8 | 0.00 | 0.91 | 0.91 | 61 | 1048.1 |
| 20260905160138 | 29 | 152 | 3.2 | 4.8 | 0.00 | 0.91 | 0.91 | 61 | 1048.4 |
| 20260905155632 | 29 | 162 | 8.0 | 9.7 | 0.00 | 0.91 | 0.91 | 58 | 1048.2 |
| 20260905155131 | 28 | 183 | 4.8 | 4.8 | 0.00 | 0.91 | 0.91 | 60 | 1048.2 |
| 20260905154631 | -17 | 0.0 | 0.0 | 0.00 | 0.91 | 0.91 | 1048.3 | ||
| 20260905154127 | -17 | 0.0 | 0.0 | 0.00 | 0.91 | 0.91 | 1048.2 | ||
| 20260905153623 | -17 | 0.0 | 0.0 | 0.00 | 0.91 | 0.91 | 1048.3 | ||
| 20260905153118 | -17 | 0.0 | 0.0 | 0.00 | 0.91 | 0.91 | 1048.4 | ||
| 20260905152613 | -17 | 0.0 | 0.0 | 0.00 | 0.91 | 0.91 | 1048.2 | ||
| 20260905152108 | 28 | 164 | 4.8 | 4.8 | 0.00 | 0.91 | 0.91 | 64 | 1048.8 |
| 20260905151603 | 28 | 164 | 4.8 | 4.8 | 0.00 | 0.91 | 0.91 | 64 | 1048.6 |
| 20260905151058 | 28 | 106 | 6.4 | 6.4 | 0.00 | 0.91 | 0.91 | 65 | 1048.6 |
| 20260905150553 | 27 | 30 | 9.7 | 11.3 | 0.00 | 0.91 | 0.91 | 65 | 1048.5 |
| 20260905150052 | 27 | 30 | 9.7 | 11.3 | 0.00 | 0.91 | 0.91 | 65 | 1048.6 |
| 20260905145550 | 27 | 110 | 6.4 | 6.4 | 0.00 | 0.91 | 0.91 | 63 | 1048.6 |
| 20260905145049 | -17 | 0.0 | 0.0 | 0.00 | 0.91 | 0.91 | 1048.5 | ||
| 20260905144545 | -17 | 0.0 | 0.0 | 0.00 | 0.91 | 0.91 | 1048.6 | ||
| 20260905144044 | -17 | 0.0 | 0.0 | 0.00 | 0.91 | 0.91 | 1048.6 | ||
| 20260905143543 | 26 | 41 | 1.6 | 0.0 | 0.00 | 0.91 | 0.91 | 66 | 1048.8 |
| 20260905143039 | 26 | 41 | 1.6 | 0.0 | 0.00 | 0.91 | 0.91 | 66 | 1048.8 |
| 20260905142537 | 26 | 59 | 0.0 | 0.0 | 0.00 | 0.91 | 0.91 | 68 | 1048.6 |
| 20260905142033 | 26 | 59 | 0.0 | 0.0 | 0.00 | 0.91 | 0.91 | 68 | 1048.9 |
| 20260905141533 | -17 | 0.0 | 0.0 | 0.00 | 0.91 | 0.91 | 1048.9 | ||
| 20260905141030 | -17 | 0.0 | 0.0 | 0.00 | 0.91 | 0.91 | 1049.1 | ||
| 20260905140530 | -17 | 0.0 | 0.0 | 0.00 | 0.91 | 0.91 | 1049.0 | ||
| 20260905140029 | -17 | 0.0 | 0.0 | 0.00 | 0.91 | 0.91 | 1049.0 | ||
| 20260905135524 | -17 | 0.0 | 0.0 | 0.00 | 0.91 | 0.91 | 1049.1 | ||
| 20260905135020 | -17 | 0.0 | 0.0 | 0.00 | 0.91 | 0.91 | 1049.1 | ||
| 20260905134520 | -17 | 0.0 | 0.0 | 0.00 | 0.91 | 0.91 | 1049.1 | ||
| 20260905134019 | 22 | 10 | 3.2 | 3.2 | 0.00 | 0.91 | 0.91 | 88 | 1049.1 |
| 20260905133514 | 22 | 10 | 3.2 | 3.2 | 0.00 | 0.91 | 0.91 | 88 | 1049.3 |
| 20260905133014 | 22 | 10 | 3.2 | 6.4 | 0.00 | 0.91 | 0.91 | 88 | 1049.3 |
| 20260905132508 | 22 | 160 | 4.8 | 4.8 | 0.00 | 0.91 | 0.91 | 88 | 1049.4 |
| 20260905132009 | 22 | 160 | 4.8 | 4.8 | 0.00 | 0.91 | 0.91 | 88 | 1049.4 |
| 20260905131504 | 22 | 30 | 6.4 | 9.7 | 0.00 | 0.91 | 0.91 | 89 | 1049.3 |
| 20260905130959 | 22 | 345 | 0.0 | 1.6 | 0.00 | 0.91 | 0.91 | 89 | 1049.4 |
| 20260905130458 | 22 | 28 | 9.7 | 12.9 | 0.00 | 0.91 | 0.91 | 89 | 1049.5 |
| 20260905125958 | 22 | 42 | 12.9 | 14.5 | 0.00 | 0.91 | 0.91 | 89 | 1049.7 |
| 20260905125453 | 21 | 16 | 11.3 | 17.7 | 0.00 | 0.91 | 0.91 | 90 | 1049.9 |
| 20260905124948 | 21 | 16 | 11.3 | 17.7 | 0.00 | 0.91 | 0.91 | 90 | 1049.6 |
| 20260905124445 | 21 | 50 | 9.7 | 12.9 | 0.00 | 0.91 | 0.91 | 90 | 1049.9 |
| 20260905123940 | 21 | 68 | 9.7 | 11.3 | 0.00 | 0.91 | 0.91 | 90 | 1050.1 |
| 20260905123436 | 21 | 57 | 3.2 | 4.8 | 0.00 | 0.91 | 0.91 | 89 | 1049.9 |
| 20260905122936 | 21 | 57 | 3.2 | 17.7 | 0.00 | 0.91 | 0.91 | 89 | 1049.7 |
| 20260905122437 | 21 | 327 | 11.3 | 16.1 | 0.00 | 0.91 | 0.91 | 87 | 1050.1 |
| 20260905121932 | 21 | 353 | 1.6 | 1.6 | 0.00 | 0.91 | 0.91 | 92 | 1049.5 |
| 20260905121428 | 21 | 353 | 1.6 | 1.6 | 0.00 | 0.91 | 0.91 | 92 | 1049.0 |
| 20260905120926 | 21 | 353 | 3.2 | 3.2 | 0.00 | 0.91 | 0.91 | 92 | 1048.7 |
| 20260905120421 | 21 | 41 | 12.9 | 14.5 | 0.00 | 0.91 | 0.91 | 89 | 1048.8 |
| 20260905115916 | 21 | 41 | 12.9 | 14.5 | 0.71 | 0.91 | 0.91 | 89 | 1049.2 |
| 20260905115415 | 21 | 41 | 12.9 | 14.5 | 0.71 | 0.91 | 0.91 | 89 | 1049.1 |
| 20260905114911 | 22 | 359 | 6.4 | 9.7 | 0.18 | 0.79 | 0.79 | 88 | 1049.0 |
| 20260905114410 | 21 | 344 | 8.0 | 11.3 | 1.07 | 0.79 | 0.79 | 91 | 1049.6 |
| 20260905113909 | 21 | 29 | 3.2 | 9.7 | 0.89 | 0.76 | 0.76 | 95 | 1049.1 |